Time;durP1;ratioP1;P1;durP2;ratioP2;P2;SDS_P1;SDS_P2;PMS_P1;PMS_P2;Temp;Humidity;BMP_temperature;BMP_pressure;BME280_temperature;BME280_humidity;BME280_pressure;Samples;Min_cycle;Max_cycle;Signal;HPM_P1;HPM_P2
2023/09/23 00:00:07;;;;;;;27.35;8.38;;;666.30;1740.80;;;;;;5089403;28;20149;-68
2023/09/23 00:02:33;;;;;;;17.27;7.63;;;666.30;1740.80;;;;;;5089718;28;20039;-71
2023/09/23 00:05:01;;;;;;;17.50;7.00;;;666.40;1740.80;;;;;;5090275;28;20020;-69
2023/09/23 00:07:28;;;;;;;33.45;8.65;;;666.40;1740.80;;;;;;5089739;28;20470;-63
2023/09/23 00:09:54;;;;;;;21.50;8.15;;;666.40;1740.80;;;;;;5089706;28;20032;-64
2023/09/23 00:12:20;;;;;;;24.65;8.07;;;666.50;1740.80;;;;;;5089190;28;20016;-67
2023/09/23 00:14:46;;;;;;;24.38;7.43;;;666.50;1715.20;;;;;;5070826;28;20043;-65
2023/09/23 00:17:12;;;;;;;24.58;8.45;;;666.50;1740.80;;;;;;5053625;28;20040;-66
2023/09/23 00:19:40;;;;;;;22.63;8.18;;;666.40;1715.20;;;;;;5089090;28;20097;-71
2023/09/23 00:22:06;;;;;;;18.60;7.70;;;666.50;1715.20;;;;;;5089629;28;20505;-63
2023/09/23 00:24:31;;;;;;;23.77;7.47;;;666.50;1740.80;;;;;;5089208;28;20055;-69
2023/09/23 00:26:59;;;;;;;27.92;8.07;;;666.40;1715.20;;;;;;5070569;28;20028;-68
2023/09/23 00:29:28;;;;;;;21.00;7.65;;;666.40;1715.20;;;;;;5089695;28;20027;-69
2023/09/23 00:31:54;;;;;;;23.75;8.00;;;666.40;1715.20;;;;;;5089253;28;20024;-68
2023/09/23 00:34:23;;;;;;;20.48;6.82;;;666.50;1689.60;;;;;;5089186;28;20031;-68
2023/09/23 00:36:50;;;;;;;24.25;7.57;;;666.50;1689.60;;;;;;5088889;28;20024;-70
2023/09/23 00:39:17;;;;;;;28.00;9.10;;;666.50;1689.60;;;;;;5069937;28;20090;-67
2023/09/23 00:41:43;;;;;;;26.30;9.10;;;666.40;1715.20;;;;;;5076528;28;20103;-63
2023/09/23 00:44:10;;;;;;;20.52;8.23;;;666.40;1689.60;;;;;;5082740;28;20028;-63
2023/09/23 00:46:37;;;;;;;26.88;8.40;;;666.50;1689.60;;;;;;5083546;28;20029;-64
2023/09/23 00:49:09;;;;;;;30.13;7.40;;;666.50;1689.60;;;;;;5069502;28;20047;-63
2023/09/23 00:51:37;;;;;;;28.35;8.00;;;666.50;1689.60;;;;;;5068727;28;20035;-63
2023/09/23 00:54:07;;;;;;;19.30;7.22;;;666.50;1689.60;;;;;;5089310;28;20024;-68
2023/09/23 00:56:36;;;;;;;28.67;8.02;;;666.50;1664.00;;;;;;5089207;28;20095;-63
2023/09/23 00:59:05;;;;;;;22.42;7.55;;;666.50;1664.00;;;;;;5089206;28;20028;-67
2023/09/23 01:01:31;;;;;;;20.88;7.85;;;666.50;1689.60;;;;;;5089080;28;20081;-67
2023/09/23 01:03:57;;;;;;;24.42;8.25;;;666.40;1715.20;;;;;;5089054;28;20405;-69
2023/09/23 01:06:27;;;;;;;17.77;6.75;;;666.20;1766.40;;;;;;5088539;28;20504;-64
2023/09/23 01:08:54;;;;;;;21.17;7.93;;;666.00;1792.00;;;;;;5089058;28;20032;-65
2023/09/23 01:11:21;;;;;;;21.75;7.75;;;666.00;1766.40;;;;;;5062603;28;20024;-67
2023/09/23 01:13:51;;;;;;;24.85;8.30;;;666.00;1766.40;;;;;;5069189;28;20087;-65
2023/09/23 01:16:18;;;;;;;22.08;7.72;;;666.00;1766.40;;;;;;5087875;28;20047;-67
2023/09/23 01:18:49;;;;;;;23.02;8.35;;;666.00;1740.80;;;;;;5075067;28;20045;-64
2023/09/23 01:21:15;;;;;;;24.83;7.47;;;666.00;1740.80;;;;;;5067163;28;20016;-69
2023/09/23 01:23:43;;;;;;;20.73;8.55;;;666.00;1766.40;;;;;;5077535;28;20116;-67
2023/09/23 01:26:11;;;;;;;33.85;8.48;;;666.00;1792.00;;;;;;5084171;28;20398;-69
2023/09/23 01:28:37;;;;;;;30.13;9.02;;;666.00;1715.20;;;;;;5087752;28;20088;-69
2023/09/23 01:31:04;;;;;;;28.40;7.47;;;666.00;1740.80;;;;;;5068883;28;20406;-72
2023/09/23 01:33:30;;;;;;;27.17;8.20;;;665.90;1740.80;;;;;;5087330;28;20077;-72
2023/09/23 01:36:02;;;;;;;29.70;8.02;;;666.00;1715.20;;;;;;5069403;28;20476;-68
2023/09/23 01:38:31;;;;;;;22.17;7.53;;;666.00;1689.60;;;;;;5091413;28;20028;-73
2023/09/23 01:40:57;;;;;;;29.02;9.15;;;666.00;1664.00;;;;;;5090525;28;20032;-74
2023/09/23 01:43:23;;;;;;;23.92;8.60;;;666.20;1664.00;;;;;;5079825;28;20046;-74
2023/09/23 01:45:49;;;;;;;25.27;9.35;;;666.20;1638.40;;;;;;5078229;28;20557;-64
2023/09/23 01:48:15;;;;;;;27.52;9.20;;;666.20;1664.00;;;;;;5084178;28;20123;-67
2023/09/23 01:50:41;;;;;;;22.40;8.40;;;666.20;1638.40;;;;;;5091023;28;20107;-63
2023/09/23 01:53:09;;;;;;;22.95;9.48;;;666.30;1638.40;;;;;;5091172;28;20074;-73
2023/09/23 01:55:35;;;;;;;20.77;7.75;;;666.30;1638.40;;;;;;5086383;28;20032;-66
2023/09/23 01:58:01;;;;;;;30.50;8.40;;;666.40;1612.80;;;;;;5072937;28;20082;-64
2023/09/23 02:00:28;;;;;;;25.88;8.10;;;666.40;1612.80;;;;;;5091010;28;20024;-66
2023/09/23 02:02:55;;;;;;;20.83;7.88;;;666.40;1612.80;;;;;;5090630;28;20383;-72
2023/09/23 02:05:24;;;;;;;29.98;7.85;;;666.40;1612.80;;;;;;5090747;28;20020;-62
2023/09/23 02:07:50;;;;;;;20.58;8.50;;;666.40;1612.80;;;;;;5072747;28;20061;-65
2023/09/23 02:10:21;;;;;;;21.80;8.60;;;666.40;1612.80;;;;;;5090865;28;20012;-64
2023/09/23 02:12:47;;;;;;;26.15;8.77;;;666.20;1612.80;;;;;;5079431;28;20076;-68
2023/09/23 02:17:57;;;;;;;20.75;7.95;;;666.50;1612.80;;;;;;5106558;27;20381;-70
2023/09/23 02:20:22;;;;;;;22.65;7.63;;;666.50;1612.80;;;;;;5106232;28;20032;-68
2023/09/23 02:22:53;;;;;;;27.85;7.97;;;666.50;1612.80;;;;;;5106600;28;20047;-68
2023/09/23 02:25:19;;;;;;;20.92;7.35;;;666.50;1612.80;;;;;;5105901;28;20513;-70
2023/09/23 02:27:46;;;;;;;25.05;8.55;;;666.50;1587.20;;;;;;5106667;28;20127;-70
2023/09/23 02:30:13;;;;;;;29.38;9.30;;;666.50;1612.80;;;;;;5087615;28;20020;-70
2023/09/23 02:32:40;;;;;;;22.63;7.82;;;666.50;1587.20;;;;;;5098286;28;20034;-69
2023/09/23 02:35:10;;;;;;;25.70;8.57;;;666.50;1587.20;;;;;;5106215;28;20234;-68
2023/09/23 02:37:37;;;;;;;30.73;9.20;;;666.40;1587.20;;;;;;5106625;28;20366;-65
2023/09/23 02:40:05;;;;;;;31.88;9.30;;;666.40;1612.80;;;;;;5106142;28;20055;-69
2023/09/23 02:42:32;;;;;;;26.30;8.20;;;666.30;1612.80;;;;;;5106560;28;20016;-65
2023/09/23 02:44:57;;;;;;;23.20;8.60;;;666.40;1612.80;;;;;;5105799;28;20554;-66
2023/09/23 02:47:23;;;;;;;30.70;8.18;;;666.30;1612.80;;;;;;5106253;28;20024;-68
2023/09/23 02:49:49;;;;;;;20.15;6.93;;;666.30;1612.80;;;;;;5105716;28;20438;-64
2023/09/23 02:52:15;;;;;;;28.55;9.10;;;666.40;1612.80;;;;;;5106524;28;20370;-63
2023/09/23 02:54:40;;;;;;;39.95;8.60;;;666.30;1612.80;;;;;;5105647;28;20020;-63
2023/09/23 02:57:12;;;;;;;18.92;7.07;;;666.40;1587.20;;;;;;5105322;28;20032;-67
2023/09/23 02:59:41;;;;;;;28.02;9.68;;;666.40;1612.80;;;;;;5092474;28;20012;-65
2023/09/23 03:02:08;;;;;;;22.95;8.35;;;666.40;1612.80;;;;;;5105674;28;20024;-63
2023/09/23 03:04:35;;;;;;;22.77;8.52;;;666.40;1612.80;;;;;;5103938;28;20070;-63
2023/09/23 03:07:06;;;;;;;28.52;9.45;;;666.30;1612.80;;;;;;5101060;28;20025;-65
2023/09/23 03:09:32;;;;;;;20.77;7.82;;;666.30;1612.80;;;;;;5092303;28;20024;-65
2023/09/23 03:12:01;;;;;;;26.55;7.88;;;666.30;1612.80;;;;;;5094104;28;20077;-64
2023/09/23 03:14:45;;;;;;;25.15;7.75;;;666.30;1612.80;;;;;;5104380;28;20343;-67
2023/09/23 03:17:13;;;;;;;25.92;8.68;;;666.40;1587.20;;;;;;5105164;28;20139;-67
2023/09/23 03:19:38;;;;;;;26.98;8.55;;;666.30;1612.80;;;;;;5105507;28;20500;-64
2023/09/23 03:22:05;;;;;;;29.13;7.85;;;666.30;1612.80;;;;;;5105338;28;20032;-63
2023/09/23 03:24:31;;;;;;;26.58;9.57;;;666.30;1587.20;;;;;;5105904;28;20066;-65
2023/09/23 03:26:59;;;;;;;21.73;7.30;;;666.30;1612.80;;;;;;5104772;28;20020;-65
2023/09/23 03:29:29;;;;;;;25.25;9.68;;;666.30;1612.80;;;;;;5091210;28;20016;-71
2023/09/23 03:31:59;;;;;;;19.90;8.02;;;666.30;1612.80;;;;;;5091398;28;20020;-64
2023/09/23 03:34:26;;;;;;;29.88;7.63;;;666.30;1612.80;;;;;;5091581;28;20020;-66
2023/09/23 03:36:56;;;;;;;24.65;7.97;;;666.30;1612.80;;;;;;5091762;28;20032;-62
2023/09/23 03:39:22;;;;;;;20.77;8.52;;;666.20;1612.80;;;;;;5090209;28;20359;-63
2023/09/23 03:41:48;;;;;;;21.85;7.50;;;666.20;1612.80;;;;;;5090904;28;20024;-65
2023/09/23 03:44:14;;;;;;;25.80;7.97;;;666.20;1612.80;;;;;;5075425;28;20086;-64
2023/09/23 03:46:45;;;;;;;21.75;7.90;;;666.20;1612.80;;;;;;5078521;28;20036;-66
2023/09/23 03:49:11;;;;;;;20.98;7.78;;;666.20;1638.40;;;;;;5091413;28;20020;-64
2023/09/23 03:51:37;;;;;;;25.98;7.68;;;666.20;1612.80;;;;;;5089281;28;20076;-68
2023/09/23 03:54:04;;;;;;;28.13;9.25;;;666.10;1638.40;;;;;;5091257;28;20370;-70
2023/09/23 03:56:33;;;;;;;29.55;8.30;;;666.10;1612.80;;;;;;5090767;28;20040;-67
2023/09/23 03:59:00;;;;;;;24.05;8.73;;;666.10;1638.40;;;;;;5091047;28;20035;-66
2023/09/23 04:01:25;;;;;;;24.80;8.27;;;666.10;1638.40;;;;;;5090546;28;20386;-64
2023/09/23 04:03:51;;;;;;;33.88;9.45;;;666.10;1612.80;;;;;;5091097;28;20021;-67
2023/09/23 04:06:17;;;;;;;27.50;9.30;;;666.10;1612.80;;;;;;5090313;28;20169;-67
2023/09/23 04:08:43;;;;;;;27.42;8.82;;;666.10;1612.80;;;;;;5091095;28;20458;-65
2023/09/23 04:11:10;;;;;;;30.90;8.82;;;666.00;1638.40;;;;;;5090368;28;20008;-67
2023/09/23 04:13:37;;;;;;;23.65;7.55;;;666.00;1664.00;;;;;;5090928;28;20794;-69
2023/09/23 04:16:05;;;;;;;25.92;8.82;;;666.00;1638.40;;;;;;5074020;28;20048;-62
2023/09/23 04:18:31;;;;;;;27.60;9.18;;;666.00;1638.40;;;;;;5078216;28;20039;-63
2023/09/23 04:21:03;;;;;;;34.22;9.45;;;665.90;1664.00;;;;;;5084294;28;20020;-64
2023/09/23 04:23:29;;;;;;;32.58;9.05;;;665.90;1664.00;;;;;;5090914;28;20448;-65
2023/09/23 04:25:55;;;;;;;27.17;8.98;;;665.90;1664.00;;;;;;5090647;28;20382;-69
2023/09/23 04:28:22;;;;;;;23.02;8.15;;;665.70;1689.60;;;;;;5084544;28;20021;-71
2023/09/23 04:30:52;;;;;;;31.00;8.75;;;665.70;1664.00;;;;;;5083035;28;20028;-69
2023/09/23 04:33:18;;;;;;;17.58;8.38;;;665.70;1689.60;;;;;;5089909;28;20466;-63
2023/09/23 04:35:43;;;;;;;29.77;9.63;;;665.70;1664.00;;;;;;5090660;28;20027;-65
2023/09/23 04:38:10;;;;;;;24.90;7.47;;;665.70;1689.60;;;;;;5090448;28;20174;-61
2023/09/23 04:40:37;;;;;;;29.35;8.70;;;665.60;1689.60;;;;;;5089513;28;20954;-65
2023/09/23 04:43:04;;;;;;;31.15;8.57;;;665.60;1689.60;;;;;;5090181;28;20073;-62
2023/09/23 04:45:30;;;;;;;25.90;9.27;;;665.60;1689.60;;;;;;5089921;28;20024;-65
2023/09/23 04:47:56;;;;;;;24.58;9.90;;;665.60;1664.00;;;;;;5071182;28;20898;-67
2023/09/23 04:50:23;;;;;;;27.05;9.10;;;665.60;1715.20;;;;;;5080722;28;20481;-67
2023/09/23 04:52:50;;;;;;;25.27;8.65;;;665.60;1689.60;;;;;;5090040;28;20032;-63
2023/09/23 04:55:16;;;;;;;22.58;9.30;;;665.60;1715.20;;;;;;5089972;28;20526;-62
2023/09/23 04:57:42;;;;;;;30.65;8.02;;;640.90;1715.20;;;;;;5090197;28;20039;-68
2023/09/23 05:00:29;;;;;;;30.00;8.82;;;640.90;1715.20;;;;;;5089817;28;20020;-64
2023/09/23 05:02:55;;;;;;;28.13;9.57;;;640.90;1689.60;;;;;;5090431;28;20024;-62
2023/09/23 05:05:20;;;;;;;24.92;7.90;;;640.90;1689.60;;;;;;5089502;28;20450;-62
2023/09/23 05:07:46;;;;;;;29.85;8.10;;;640.90;1689.60;;;;;;5089610;28;20028;-71
2023/09/23 05:10:12;;;;;;;28.98;9.50;;;640.90;1715.20;;;;;;5089596;28;20056;-64
2023/09/23 05:12:39;;;;;;;26.65;9.07;;;640.90;1689.60;;;;;;5089229;28;20063;-65
2023/09/23 05:15:06;;;;;;;29.00;7.88;;;665.60;1715.20;;;;;;5089694;28;20106;-67
2023/09/23 05:17:32;;;;;;;31.02;9.77;;;665.60;1715.20;;;;;;5089409;28;20391;-65
2023/09/23 05:19:58;;;;;;;36.97;9.32;;;665.70;1715.20;;;;;;5089727;28;20099;-70
2023/09/23 05:22:25;;;;;;;32.08;9.45;;;665.90;1715.20;;;;;;5089760;28;20020;-66
2023/09/23 05:24:56;;;;;;;31.15;11.40;;;665.90;1689.60;;;;;;5072449;28;20017;-64
2023/09/23 05:27:22;;;;;;;26.00;10.45;;;665.90;1689.60;;;;;;5079011;28;20016;-63
2023/09/23 05:29:50;;;;;;;39.03;11.45;;;666.00;1689.60;;;;;;5089432;28;20035;-63
2023/09/23 05:32:16;;;;;;;29.30;11.00;;;666.10;1664.00;;;;;;5088870;28;20016;-65
2023/09/23 05:34:42;;;;;;;28.38;10.38;;;666.10;1689.60;;;;;;5089350;28;20420;-63
2023/09/23 05:37:11;;;;;;;24.13;8.35;;;666.30;1664.00;;;;;;5089327;28;20031;-64
2023/09/23 05:39:37;;;;;;;38.42;10.02;;;666.30;1664.00;;;;;;5087887;28;20039;-63
2023/09/23 05:42:03;;;;;;;28.88;8.88;;;666.40;1664.00;;;;;;5088539;28;20065;-68
2023/09/23 05:44:29;;;;;;;26.17;8.68;;;666.30;1638.40;;;;;;5089268;28;20102;-62
2023/09/23 05:46:55;;;;;;;22.60;8.05;;;666.40;1638.40;;;;;;5089021;28;20169;-67
2023/09/23 05:49:21;;;;;;;28.35;9.32;;;666.50;1638.40;;;;;;5088935;28;20020;-62
2023/09/23 05:51:47;;;;;;;31.13;11.50;;;666.50;1638.40;;;;;;5088305;28;20028;-65
2023/09/23 05:54:15;;;;;;;23.88;10.32;;;691.20;1638.40;;;;;;5089454;28;20016;-71
2023/09/23 05:56:40;;;;;;;26.05;10.35;;;691.30;1638.40;;;;;;5088512;28;20039;-64
2023/09/23 05:59:08;;;;;;;34.60;10.25;;;691.40;1638.40;;;;;;5071923;28;20033;-64
2023/09/23 06:01:35;;;;;;;35.13;12.63;;;691.70;1638.40;;;;;;5087789;28;20016;-73
2023/09/23 06:04:02;;;;;;;36.05;11.50;;;717.40;1587.20;;;;;;5088543;28;20012;-65
2023/09/23 06:06:28;;;;;;;31.05;12.63;;;742.90;1561.60;;;;;;5088940;28;20012;-67
2023/09/23 06:08:54;;;;;;;40.15;11.60;;;768.70;1510.40;;;;;;5089359;28;20103;-63
2023/09/23 06:11:20;;;;;;;29.90;10.23;;;;;;;;;;5088481;28;20031;-66
2023/09/23 06:13:46;;;;;;;35.08;12.55;;;;;;;;;;5089137;28;20481;-64
2023/09/23 06:16:12;;;;;;;35.78;12.18;;;;;;;;;;5088319;28;20048;-63
2023/09/23 06:18:38;;;;;;;38.40;13.77;;;743.30;1510.40;;;;;;5088879;28;20378;-62
2023/09/23 06:21:06;;;;;;;36.97;11.77;;;742.60;1587.20;;;;;;5088648;28;20016;-71
2023/09/23 06:23:32;;;;;;;30.02;10.13;;;742.60;1587.20;;;;;;5088819;28;20096;-68
2023/09/23 06:26:01;;;;;;;37.35;12.10;;;742.80;1536.00;;;;;;5088206;28;20127;-69
2023/09/23 06:28:30;;;;;;;30.98;11.77;;;742.60;1561.60;;;;;;5088252;28;20131;-66
2023/09/23 06:30:56;;;;;;;28.92;11.10;;;717.70;1561.60;;;;;;5067513;28;20032;-64
2023/09/23 06:33:23;;;;;;;29.88;11.15;;;717.20;1561.60;;;;;;5082697;28;20024;-66
2023/09/23 06:35:49;;;;;;;25.95;11.18;;;717.30;1587.20;;;;;;5088799;28;20394;-63
2023/09/23 06:38:15;;;;;;;27.02;10.32;;;768.60;1510.40;;;;;;5088605;28;20035;-62
2023/09/23 06:40:41;;;;;;;32.72;13.30;;;820.10;1408.00;;;;;;5088654;28;20020;-66
2023/09/23 06:43:07;;;;;;;28.77;11.57;;;870.70;1356.80;;;;;;5088420;28;20039;-64
2023/09/23 06:45:33;;;;;;;28.55;10.73;;;896.90;1280.00;;;;;;5088725;28;20095;-66
2023/09/23 06:47:58;;;;;;;23.13;10.50;;;896.30;1280.00;;;;;;5088134;28;20016;-75
2023/09/23 06:50:25;;;;;;;33.50;12.50;;;922.30;1254.40;;;;;;5086137;28;20492;-64
2023/09/23 06:52:50;;;;;;;23.98;10.57;;;973.00;1228.80;;;;;;5084768;28;20461;-64
2023/09/23 06:55:17;;;;;;;28.75;12.75;;;973.40;1177.60;;;;;;5082163;28;20043;-66
2023/09/23 06:57:42;;;;;;;28.98;12.10;;;999.20;1152.00;;;;;;5085852;28;20028;-65
2023/09/23 07:00:09;;;;;;;32.88;11.60;;;998.60;1177.60;;;;;;5069017;28;20103;-64
2023/09/23 07:02:35;;;;;;;31.35;11.27;;;999.20;1126.40;;;;;;5057464;28;20033;-64
2023/09/23 07:05:01;;;;;;;29.67;12.13;;;1049.80;1100.80;;;;;;5080965;28;20024;-66
2023/09/23 07:07:27;;;;;;;21.88;12.40;;;1024.90;1100.80;;;;;;5090312;28;20020;-68
2023/09/23 07:09:53;;;;;;;25.67;11.20;;;1049.90;1126.40;;;;;;5090852;28;20052;-70
2023/09/23 07:12:19;;;;;;;27.48;11.73;;;1050.00;1100.80;;;;;;5090313;28;20497;-72
2023/09/23 07:14:46;;;;;;;44.22;12.75;;;1024.90;1075.20;;;;;;5090576;28;20099;-69
2023/09/23 07:17:12;;;;;;;27.95;12.25;;;1075.40;1075.20;;;;;;5089691;28;20052;-64
2023/09/23 07:19:38;;;;;;;31.13;13.18;;;1100.80;1049.60;;;;;;5089980;28;20035;-70
2023/09/23 07:22:04;;;;;;;28.20;13.75;;;1101.70;1049.60;;;;;;5090068;28;20045;-65
2023/09/23 07:24:33;;;;;;;36.28;26.23;;;1101.20;1024.00;;;;;;5090422;28;20495;-65
2023/09/23 07:27:00;;;;;;;49.53;38.92;;;1101.50;998.40;;;;;;5089412;28;20030;-65
2023/09/23 07:29:26;;;;;;;44.22;37.25;;;1126.60;1024.00;;;;;;5090071;28;20028;-66
2023/09/23 07:31:55;;;;;;;29.27;18.23;;;1126.60;1024.00;;;;;;5071738;28;20024;-65
2023/09/23 07:34:21;;;;;;;42.22;31.13;;;1050.30;1049.60;;;;;;5061400;28;20025;-68
2023/09/23 07:36:47;;;;;;;25.38;12.15;;;999.30;1152.00;;;;;;5085071;28;20379;-70
2023/09/23 07:39:15;;;;;;;27.48;13.23;;;1024.00;1177.60;;;;;;5090373;28;20027;-72
2023/09/23 07:41:41;;;;;;;29.42;11.07;;;1049.60;1203.20;;;;;;5089864;28;20107;-69
2023/09/23 07:44:07;;;;;;;31.80;12.27;;;1049.70;1203.20;;;;;;5090101;28;20119;-67
2023/09/23 07:46:32;;;;;;;24.88;12.48;;;1050.40;1177.60;;;;;;5089039;28;20056;-68
2023/09/23 07:48:58;;;;;;;29.50;11.10;;;1050.10;1177.60;;;;;;5090041;28;20035;-74
2023/09/23 07:51:24;;;;;;;24.77;12.43;;;1049.70;1203.20;;;;;;5089932;28;20031;-70
2023/09/23 07:53:53;;;;;;;22.65;12.30;;;1049.70;1203.20;;;;;;5089793;28;20024;-70
2023/09/23 07:56:19;;;;;;;26.63;12.13;;;1050.00;1203.20;;;;;;5087898;28;20069;-66
2023/09/23 07:58:44;;;;;;;24.58;12.48;;;1049.90;1228.80;;;;;;5078719;28;20040;-67
2023/09/23 08:01:10;;;;;;;25.33;12.35;;;1050.00;1228.80;;;;;;5077701;28;20055;-67
2023/09/23 08:03:37;;;;;;;26.75;18.55;;;1049.60;1254.40;;;;;;5068904;28;20020;-68
2023/09/23 08:06:03;;;;;;;22.83;11.55;;;1050.00;1228.80;;;;;;5068735;28;20092;-66
2023/09/23 08:08:29;;;;;;;20.65;13.35;;;1024.70;1228.80;;;;;;5077337;28;20020;-70
2023/09/23 08:10:55;;;;;;;26.52;14.65;;;1075.50;1203.20;;;;;;5081918;28;20032;-72
2023/09/23 08:13:21;;;;;;;20.15;11.07;;;1075.70;1177.60;;;;;;5079680;28;20094;-68
2023/09/23 08:15:48;;;;;;;21.75;13.60;;;1075.30;1177.60;;;;;;5081467;28;20390;-69
2023/09/23 08:18:14;;;;;;;18.77;11.85;;;1075.50;1177.60;;;;;;5088985;28;20485;-69
2023/09/23 08:20:40;;;;;;;27.40;13.68;;;1076.10;1177.60;;;;;;5089229;28;20028;-73
2023/09/23 08:23:06;;;;;;;24.55;14.68;;;1100.80;1177.60;;;;;;5088303;28;20893;-66
2023/09/23 08:25:33;;;;;;;23.20;20.90;;;1101.30;1177.60;;;;;;5088593;28;20020;-66
2023/09/23 08:28:00;;;;;;;22.52;12.68;;;1101.60;1152.00;;;;;;5088956;28;20020;-68
2023/09/23 08:30:25;;;;;;;19.00;13.73;;;1101.30;1177.60;;;;;;5089119;28;20028;-70
2023/09/23 08:32:53;;;;;;;23.58;11.88;;;1101.00;1203.20;;;;;;5088630;28;20371;-68
2023/09/23 08:35:18;;;;;;;24.25;11.77;;;1050.30;1228.80;;;;;;5088468;28;20020;-67
2023/09/23 08:37:45;;;;;;;21.15;14.02;;;1050.40;1228.80;;;;;;5088508;28;20111;-66
2023/09/23 08:40:12;;;;;;;20.30;11.90;;;1075.30;1203.20;;;;;;5083090;28;20032;-65
2023/09/23 08:42:39;;;;;;;21.13;11.48;;;1049.90;1254.40;;;;;;5067905;28;20076;-65
2023/09/23 08:45:09;;;;;;;18.30;10.20;;;1050.00;1228.80;;;;;;5080334;28;20107;-66
2023/09/23 08:47:39;;;;;;;16.20;10.50;;;998.90;1305.60;;;;;;5088533;28;20028;-64
2023/09/23 08:50:11;;;;;;;20.85;11.15;;;998.80;1305.60;;;;;;5089260;28;20031;-65
2023/09/23 08:52:37;;;;;;;;;;;973.50;1331.20;;;;;;5090471;28;20028;-70
2023/09/23 08:55:04;;;;;;;16.80;9.13;;;973.10;1331.20;;;;;;5090007;28;19908;-70
2023/09/23 08:57:30;;;;;;;24.63;8.55;;;947.30;1356.80;;;;;;5090044;28;20176;-65
2023/09/23 08:59:57;;;;;;;20.48;8.80;;;922.10;1382.40;;;;;;5089767;28;20024;-67
2023/09/23 09:02:28;;;;;;;16.35;6.47;;;896.90;1408.00;;;;;;5090010;28;20433;-67
2023/09/23 09:04:55;;;;;;;14.48;7.68;;;896.40;1433.60;;;;;;5090033;28;20024;-67
2023/09/23 09:07:38;;;;;;;10.77;6.43;;;870.70;1510.40;;;;;;5090137;28;20024;-68
2023/09/23 09:10:04;;;;;;;;;;;845.70;1510.40;;;;;;5090405;28;20055;-69
2023/09/23 09:12:34;;;;;;;44.13;8.48;;;845.60;1510.40;;;;;;5082815;28;19908;-62
2023/09/23 09:15:00;;;;;;;12.57;6.40;;;845.50;1536.00;;;;;;5062860;28;20089;-67
2023/09/23 09:17:26;;;;;;;10.00;6.20;;;845.20;1536.00;;;;;;5086191;28;20094;-68
2023/09/23 09:19:52;;;;;;;13.35;6.40;;;845.40;1536.00;;;;;;5089639;28;20481;-68
2023/09/23 09:22:19;;;;;;;12.25;5.78;;;845.20;1536.00;;;;;;5089296;28;20044;-69
2023/09/23 09:24:46;;;;;;;14.07;7.28;;;845.00;1536.00;;;;;;5088915;28;20471;-65
2023/09/23 09:27:15;;;;;;;13.50;6.57;;;820.10;1536.00;;;;;;5081868;28;20491;-66
2023/09/23 09:29:42;;;;;;;16.80;6.72;;;819.90;1561.60;;;;;;5076483;28;20036;-69
2023/09/23 09:32:09;;;;;;;13.13;6.50;;;820.00;1561.60;;;;;;5089182;28;20020;-66
2023/09/23 09:34:42;;;;;;;19.92;7.50;;;819.90;1587.20;;;;;;5088758;28;20033;-68
2023/09/23 09:37:11;;;;;;;16.70;6.95;;;844.80;1587.20;;;;;;5089447;28;20061;-69
2023/09/23 09:39:53;;;;;;;14.40;6.13;;;844.90;1587.20;;;;;;5088674;28;20049;-64
2023/09/23 09:42:30;;;;;;;13.07;5.83;;;820.10;1561.60;;;;;;5088600;28;20034;-69
2023/09/23 09:44:59;;;;;;;10.00;5.13;;;844.90;1587.20;;;;;;5078720;28;20037;-62
2023/09/23 09:47:28;;;;;;;13.80;5.40;;;820.10;1561.60;;;;;;5068424;28;20029;-70
2023/09/23 09:49:54;;;;;;;12.98;5.75;;;820.00;1561.60;;;;;;5061624;28;20496;-68
2023/09/23 09:52:25;;;;;;;13.82;5.65;;;819.80;1587.20;;;;;;5068873;28;20020;-64
2023/09/23 09:54:57;;;;;;;14.40;6.00;;;819.80;1587.20;;;;;;5066247;28;20033;-61
2023/09/23 09:57:25;;;;;;;15.27;5.03;;;819.70;1561.60;;;;;;5066103;28;20035;-66
2023/09/23 09:59:53;;;;;;;12.63;6.15;;;819.70;1561.60;;;;;;5069659;28;20028;-64
2023/09/23 10:02:21;;;;;;;17.75;6.53;;;794.50;1587.20;;;;;;5059343;28;20506;-62
2023/09/23 10:04:52;;;;;;;14.52;7.50;;;819.30;1612.80;;;;;;5059884;28;20373;-62
2023/09/23 10:07:18;;;;;;;16.23;6.75;;;819.30;1587.20;;;;;;5051426;28;20053;-63
2023/09/23 10:09:54;;;;;;;13.05;6.20;;;819.20;1587.20;;;;;;5056306;28;20213;-62
2023/09/23 10:12:31;;;;;;;9.57;5.25;;;794.50;1587.20;;;;;;5060356;28;20029;-62
2023/09/23 10:14:58;;;;;;;10.25;4.72;;;794.30;1612.80;;;;;;5063986;28;20412;-63
2023/09/23 10:17:35;;;;;;;10.75;4.90;;;794.40;1612.80;;;;;;5050936;28;20091;-65
2023/09/23 10:20:01;;;;;;;16.05;5.60;;;794.10;1612.80;;;;;;5066325;28;20028;-61
2023/09/23 10:22:30;;;;;;;10.98;5.25;;;793.70;1638.40;;;;;;5059561;28;20379;-64
2023/09/23 10:25:06;;;;;;;12.57;5.25;;;793.80;1612.80;;;;;;5078742;28;20446;-62
2023/09/23 10:27:36;;;;;;;22.80;9.48;;;793.70;1612.80;;;;;;5060739;28;20037;-61
2023/09/23 10:30:03;;;;;;;12.15;5.32;;;793.80;1638.40;;;;;;5067313;28;20062;-65
2023/09/23 10:32:29;;;;;;;14.27;5.13;;;793.70;1612.80;;;;;;5058241;28;20028;-65
2023/09/23 10:34:55;;;;;;;13.85;4.90;;;768.60;1612.80;;;;;;5070015;28;20031;-61
2023/09/23 10:37:25;;;;;;;12.13;5.65;;;768.60;1638.40;;;;;;5064523;28;20597;-63
2023/09/23 10:39:51;;;;;;;14.32;5.57;;;768.40;1638.40;;;;;;5074793;28;20021;-62
2023/09/23 10:42:18;;;;;;;13.38;6.03;;;768.40;1638.40;;;;;;5070578;28;20042;-62
2023/09/23 10:44:47;;;;;;;11.73;5.15;;;768.40;1638.40;;;;;;5070492;28;20028;-65
2023/09/23 10:47:14;;;;;;;13.27;5.40;;;768.60;1612.80;;;;;;5069294;28;20463;-62
2023/09/23 10:49:40;;;;;;;15.13;4.78;;;768.60;1612.80;;;;;;5067343;28;20028;-68
2023/09/23 10:52:06;;;;;;;13.05;5.40;;;768.40;1612.80;;;;;;5073238;28;20036;-62
2023/09/23 10:54:32;;;;;;;9.50;4.72;;;768.60;1638.40;;;;;;5088672;28;20421;-65
2023/09/23 10:57:01;;;;;;;11.88;5.45;;;768.60;1612.80;;;;;;5069130;28;20444;-64
2023/09/23 10:59:27;;;;;;;13.23;4.95;;;768.70;1638.40;;;;;;5069395;28;20486;-61
2023/09/23 11:01:56;;;;;;;10.80;5.32;;;768.60;1664.00;;;;;;5060697;28;20098;-62
2023/09/23 11:04:25;;;;;;;15.60;5.82;;;768.90;1612.80;;;;;;5063057;28;20035;-62
2023/09/23 11:06:51;;;;;;;16.17;5.90;;;768.60;1638.40;;;;;;5056077;28;20025;-66
2023/09/23 11:09:20;;;;;;;13.90;4.95;;;768.60;1638.40;;;;;;5058264;28;20115;-62
2023/09/23 11:11:46;;;;;;;15.82;6.05;;;768.20;1664.00;;;;;;5058695;28;20045;-65
2023/09/23 11:14:13;;;;;;;13.57;5.80;;;768.40;1664.00;;;;;;5056968;28;20105;-62
2023/09/23 11:16:43;;;;;;;23.25;9.30;;;768.50;1664.00;;;;;;5054600;28;20542;-64
2023/09/23 11:19:09;;;;;;;13.60;5.45;;;768.60;1664.00;;;;;;5064216;28;20030;-62
2023/09/23 11:21:46;;;;;;;11.27;6.00;;;768.40;1638.40;;;;;;5067074;28;20123;-63
2023/09/23 11:24:12;;;;;;;23.92;20.80;;;768.40;1664.00;;;;;;5078687;28;20063;-63
2023/09/23 11:26:39;;;;;;;19.23;9.73;;;768.20;1664.00;;;;;;5076294;28;20614;-63
2023/09/23 11:29:07;;;;;;;15.13;7.38;;;768.60;1664.00;;;;;;5075140;28;20793;-63
2023/09/23 11:31:33;;;;;;;15.15;6.45;;;768.40;1664.00;;;;;;5070791;28;20113;-62
2023/09/23 11:33:59;;;;;;;12.65;5.32;;;768.60;1664.00;;;;;;5066746;28;20115;-61
2023/09/23 11:36:24;;;;;;;15.30;6.75;;;768.40;1638.40;;;;;;5070058;28;20083;-63
2023/09/23 11:38:50;;;;;;;15.40;6.47;;;768.60;1638.40;;;;;;5064143;28;20048;-63
2023/09/23 11:41:16;;;;;;;15.43;6.15;;;768.40;1664.00;;;;;;5084569;28;20021;-62
2023/09/23 11:43:42;;;;;;;10.60;4.90;;;768.40;1664.00;;;;;;5064778;28;20032;-62
2023/09/23 11:46:08;;;;;;;15.25;5.78;;;768.60;1664.00;;;;;;5064887;28;20029;-62
2023/09/23 11:48:35;;;;;;;16.60;6.85;;;768.60;1638.40;;;;;;5058881;28;20823;-68
2023/09/23 11:51:01;;;;;;;11.15;6.07;;;768.90;1638.40;;;;;;5065171;28;20064;-64
2023/09/23 11:53:27;;;;;;;10.90;4.85;;;768.90;1638.40;;;;;;5071444;28;20536;-62
2023/09/23 11:55:53;;;;;;;10.98;6.25;;;793.80;1638.40;;;;;;5088272;28;20144;-66
2023/09/23 11:58:23;;;;;;;16.52;6.10;;;793.90;1664.00;;;;;;5091032;28;20031;-66
2023/09/23 12:00:48;;;;;;;13.95;6.07;;;793.70;1664.00;;;;;;5091181;28;20036;-73
2023/09/23 12:03:14;;;;;;;15.25;6.07;;;793.60;1689.60;;;;;;5090686;28;20036;-62
2023/09/23 12:05:41;;;;;;;15.77;6.03;;;793.70;1664.00;;;;;;5091168;28;20028;-63
2023/09/23 12:08:09;;;;;;;16.42;5.35;;;793.90;1689.60;;;;;;5078714;28;20140;-66